createdAt,value
2018-09-12T00:01:42.712Z,20.20
2018-09-12T00:04:14.091Z,20.10
2018-09-12T00:06:42.714Z,20.30
2018-09-12T00:09:12.559Z,20.30
2018-09-12T00:11:41.299Z,20.30
2018-09-12T00:14:10.171Z,20.20
2018-09-12T00:16:38.761Z,20.20
2018-09-12T00:19:07.707Z,20.20
2018-09-12T00:21:36.707Z,20.20
2018-09-12T00:24:05.280Z,20.20
2018-09-12T00:26:33.854Z,20.10
2018-09-12T00:29:02.447Z,20.10
2018-09-12T00:31:31.058Z,20.10
2018-09-12T00:33:59.596Z,20.10
2018-09-12T00:36:28.143Z,20.10
2018-09-12T00:38:56.740Z,20.10
2018-09-12T00:41:25.358Z,20.10
2018-09-12T00:43:54.016Z,20.10
2018-09-12T00:46:22.650Z,20.10
2018-09-12T00:48:51.306Z,20.00
2018-09-12T00:51:19.906Z,20.10
2018-09-12T00:53:48.508Z,20.00
2018-09-12T00:56:17.075Z,20.10
2018-09-12T00:58:45.591Z,20.10
2018-09-12T01:01:14.111Z,20.10
2018-09-12T01:03:42.613Z,20.10
2018-09-12T01:06:11.215Z,20.10
2018-09-12T01:08:40.213Z,20.10
2018-09-12T01:11:08.978Z,20.20
2018-09-12T01:13:37.534Z,20.20
2018-09-12T01:16:06.194Z,20.20
2018-09-12T01:18:34.772Z,20.20
2018-09-12T01:21:03.329Z,20.20
2018-09-12T01:23:32.568Z,20.30
2018-09-12T01:26:01.159Z,20.30
2018-09-12T01:28:29.803Z,20.30
2018-09-12T01:30:58.474Z,20.10
2018-09-12T01:33:27.011Z,20.10
2018-09-12T01:35:55.605Z,20.10
2018-09-12T01:38:24.860Z,20.10
2018-09-12T01:40:53.487Z,20.10
2018-09-12T01:43:22.112Z,20.00
2018-09-12T01:45:50.693Z,20.00
2018-09-12T01:48:19.302Z,20.00
2018-09-12T01:50:47.857Z,20.10
2018-09-12T01:53:16.488Z,20.10
2018-09-12T01:55:45.103Z,20.10
2018-09-12T01:58:13.737Z,20.10
2018-09-12T02:00:43.561Z,20.10
2018-09-12T02:03:12.147Z,20.20
2018-09-12T02:05:40.725Z,20.10
2018-09-12T02:08:09.287Z,20.10
2018-09-12T02:10:37.929Z,20.10
2018-09-12T02:13:07.602Z,20.00
2018-09-12T02:15:36.359Z,19.90
2018-09-12T02:18:05.171Z,19.90
2018-09-12T02:20:33.782Z,19.90
2018-09-12T02:23:02.337Z,20.00
2018-09-12T02:25:30.954Z,20.00
2018-09-12T02:27:59.596Z,19.90
2018-09-12T02:30:28.729Z,20.00
2018-09-12T02:32:57.317Z,20.00
2018-09-12T02:35:25.982Z,20.10
2018-09-12T02:37:54.495Z,20.10
2018-09-12T02:40:23.057Z,20.00
2018-09-12T02:42:51.754Z,20.10
2018-09-12T02:45:20.330Z,20.00
2018-09-12T02:47:48.971Z,20.00
2018-09-12T02:50:17.581Z,20.00
2018-09-12T02:52:46.159Z,20.00
2018-09-12T02:55:14.735Z,20.00
2018-09-12T02:57:43.344Z,20.00
2018-09-12T03:00:11.868Z,19.90
2018-09-12T03:02:40.517Z,19.90
2018-09-12T03:05:09.076Z,19.90
2018-09-12T03:07:37.611Z,20.00
2018-09-12T03:10:07.096Z,19.90
2018-09-12T03:12:35.701Z,19.90
2018-09-12T03:15:04.321Z,19.90
2018-09-12T03:17:32.972Z,19.80
2018-09-12T03:20:01.642Z,19.90
2018-09-12T03:22:30.186Z,19.80
2018-09-12T03:24:58.798Z,19.80
2018-09-12T03:27:27.437Z,19.70
2018-09-12T03:29:56.035Z,19.70
2018-09-12T03:32:25.211Z,19.60
2018-09-12T03:34:54.390Z,19.60
2018-09-12T03:37:23.634Z,19.60
2018-09-12T03:39:52.275Z,19.60
2018-09-12T03:42:27.616Z,19.60
2018-09-12T03:44:56.258Z,19.50
2018-09-12T03:47:24.889Z,19.60
2018-09-12T03:49:53.497Z,19.60
2018-09-12T03:52:22.076Z,19.60
2018-09-12T03:54:50.648Z,19.50
2018-09-12T03:57:19.201Z,19.60
2018-09-12T03:59:48.634Z,19.50
2018-09-12T04:02:17.216Z,19.50
2018-09-12T04:04:45.832Z,19.40
2018-09-12T04:07:14.506Z,19.40
2018-09-12T04:09:43.178Z,19.30
2018-09-12T04:12:11.802Z,19.30
2018-09-12T04:14:40.459Z,19.20
2018-09-12T04:17:09.132Z,19.20
2018-09-12T04:19:37.933Z,19.20
2018-09-12T04:22:06.635Z,19.20
2018-09-12T04:24:35.287Z,19.10
2018-09-12T04:27:03.904Z,19.10
2018-09-12T04:29:32.506Z,19.00
2018-09-12T04:32:01.091Z,19.10
2018-09-12T04:34:29.714Z,19.10
2018-09-12T04:36:58.291Z,19.10
2018-09-12T04:39:26.870Z,19.10
2018-09-12T04:41:55.465Z,19.10
2018-09-12T04:44:24.146Z,19.00
2018-09-12T04:46:52.961Z,19.10
2018-09-12T04:49:21.688Z,19.20
2018-09-12T04:51:50.538Z,19.10
2018-09-12T04:54:19.139Z,19.20
2018-09-12T04:56:47.809Z,19.20
2018-09-12T04:59:16.370Z,19.20
2018-09-12T05:01:45.058Z,19.20
2018-09-12T05:04:13.664Z,19.30
2018-09-12T05:06:42.197Z,19.30
2018-09-12T05:09:11.953Z,19.30
2018-09-12T05:11:40.717Z,19.40
2018-09-12T05:14:09.380Z,19.30
2018-09-12T05:16:38.109Z,19.30
2018-09-12T05:19:06.669Z,19.20
2018-09-12T05:21:35.282Z,19.10
2018-09-12T05:24:03.861Z,19.10
2018-09-12T05:26:32.518Z,19.10
2018-09-12T05:29:01.154Z,19.10
2018-09-12T05:31:29.845Z,19.10
2018-09-12T05:33:58.577Z,19.10
2018-09-12T05:36:27.257Z,19.10
2018-09-12T05:38:55.873Z,19.10
2018-09-12T05:41:24.531Z,19.10
2018-09-12T05:43:53.283Z,19.10
2018-09-12T05:46:22.062Z,19.10
2018-09-12T05:48:51.074Z,19.10
2018-09-12T05:51:19.653Z,19.10
2018-09-12T05:53:48.402Z,19.10
2018-09-12T05:56:17.064Z,19.10
2018-09-12T05:58:45.670Z,19.20
2018-09-12T06:01:14.449Z,19.20
2018-09-12T06:03:43.498Z,19.20
2018-09-12T06:06:12.090Z,19.20
2018-09-12T06:08:40.706Z,19.30
2018-09-12T06:11:09.304Z,19.30
2018-09-12T06:13:38.090Z,19.30
2018-09-12T06:16:06.787Z,19.30
2018-09-12T06:18:35.744Z,19.40
2018-09-12T06:21:04.446Z,19.40
2018-09-12T06:23:33.059Z,19.50
2018-09-12T06:26:01.667Z,19.50
2018-09-12T06:28:30.698Z,19.50
2018-09-12T06:30:59.445Z,19.60
2018-09-12T06:33:28.077Z,19.60
2018-09-12T06:35:56.666Z,19.70
2018-09-12T06:38:25.352Z,19.70
2018-09-12T06:40:53.887Z,19.60
2018-09-12T06:43:22.509Z,19.60
2018-09-12T06:45:51.167Z,19.60
2018-09-12T06:48:19.805Z,19.50
2018-09-12T06:50:48.398Z,19.50
2018-09-12T06:53:16.996Z,19.50
2018-09-12T06:55:45.669Z,19.50
2018-09-12T06:58:14.331Z,19.50
2018-09-12T07:00:43.079Z,19.60
2018-09-12T07:03:11.859Z,19.70
2018-09-12T07:05:40.735Z,19.80
2018-09-12T07:08:09.380Z,19.90
2018-09-12T07:10:38.191Z,19.90
2018-09-12T07:13:07.419Z,20.00
2018-09-12T07:15:36.061Z,20.00
2018-09-12T07:18:04.869Z,20.00
2018-09-12T07:20:33.448Z,20.10
2018-09-12T07:23:02.078Z,20.20
2018-09-12T07:25:30.823Z,20.30
2018-09-12T07:27:59.444Z,20.50
2018-09-12T07:30:28.176Z,20.50
2018-09-12T07:32:56.804Z,20.60
2018-09-12T07:35:25.867Z,20.70
2018-09-12T07:37:54.483Z,20.70
2018-09-12T07:40:23.193Z,20.70
2018-09-12T07:42:51.775Z,20.70
2018-09-12T07:45:20.368Z,20.60
2018-09-12T07:47:48.965Z,20.60
2018-09-12T07:50:17.624Z,20.60
2018-09-12T07:52:46.172Z,20.70
2018-09-12T07:55:14.864Z,20.70
2018-09-12T07:57:43.560Z,20.60
2018-09-12T08:00:12.272Z,20.60
2018-09-12T08:02:40.968Z,20.50
2018-09-12T08:05:09.654Z,20.50
2018-09-12T08:07:38.372Z,20.50
2018-09-12T08:10:09.001Z,20.70
2018-09-12T08:12:37.723Z,20.90
2018-09-12T08:15:06.410Z,21.10
2018-09-12T08:17:35.147Z,21.20
2018-09-12T08:20:03.920Z,21.30
2018-09-12T08:22:32.564Z,21.30
2018-09-12T08:25:01.254Z,21.20
2018-09-12T08:27:29.819Z,21.20
2018-09-12T08:29:58.576Z,21.10
2018-09-12T08:32:27.410Z,21.20
2018-09-12T08:34:56.017Z,21.20
2018-09-12T08:37:24.657Z,21.30
2018-09-12T08:39:53.272Z,21.30
2018-09-12T08:42:22.073Z,21.40
2018-09-12T08:44:50.633Z,21.50
2018-09-12T08:47:19.306Z,21.60
2018-09-12T08:49:47.947Z,21.80
2018-09-12T08:52:16.626Z,21.90
2018-09-12T08:54:45.298Z,22.10
2018-09-12T08:57:13.971Z,21.90
2018-09-12T08:59:42.643Z,21.90
2018-09-12T09:02:11.347Z,22.10
2018-09-12T09:04:39.967Z,21.90
2018-09-12T09:07:08.700Z,22.10
2018-09-12T09:09:37.302Z,22.30
2018-09-12T09:12:06.530Z,22.40
2018-09-12T09:14:35.171Z,22.60
2018-09-12T09:17:03.813Z,22.80
2018-09-12T09:19:32.474Z,22.40
2018-09-12T09:22:01.963Z,22.00
2018-09-12T09:24:30.910Z,21.60
2018-09-12T09:26:59.591Z,21.70
2018-09-12T09:29:28.329Z,21.70
2018-09-12T09:31:56.885Z,21.50
2018-09-12T09:34:25.499Z,21.30
2018-09-12T09:36:54.109Z,21.10
2018-09-12T09:39:22.798Z,21.10
2018-09-12T09:41:51.344Z,21.20
2018-09-12T09:44:20.060Z,21.20
2018-09-12T09:46:48.794Z,21.20
2018-09-12T09:49:17.615Z,21.40
2018-09-12T09:51:46.212Z,21.60
2018-09-12T09:54:14.967Z,21.70
2018-09-12T09:56:43.664Z,21.50
2018-09-12T09:59:12.377Z,21.50
2018-09-12T10:01:46.253Z,21.60
2018-09-12T10:04:28.363Z,21.80
2018-09-12T10:06:59.496Z,22.00
2018-09-12T10:09:32.298Z,22.10
2018-09-12T10:12:02.063Z,22.10
2018-09-12T10:14:32.401Z,22.20
2018-09-12T10:17:01.086Z,22.40
2018-09-12T10:19:29.796Z,22.60
2018-09-12T10:21:58.491Z,22.80
2018-09-12T10:24:27.528Z,22.60
2018-09-12T10:26:56.115Z,22.60
2018-09-12T10:29:24.821Z,22.30
2018-09-12T10:31:53.677Z,22.30
2018-09-12T10:34:22.321Z,22.20
2018-09-12T10:36:51.529Z,21.60
2018-09-12T10:39:20.256Z,20.60
2018-09-12T10:41:49.193Z,19.60
2018-09-12T10:44:17.970Z,18.90
2018-09-12T10:46:46.574Z,18.40
2018-09-12T10:49:15.354Z,18.10
2018-09-12T10:51:44.050Z,17.80
2018-09-12T10:54:12.672Z,17.60
2018-09-12T10:56:41.384Z,17.60
2018-09-12T10:59:10.112Z,17.80
2018-09-12T11:01:38.799Z,17.90
2018-09-12T11:04:07.803Z,17.90
2018-09-12T11:06:36.540Z,18.00
2018-09-12T11:09:08.879Z,17.70
2018-09-12T11:11:37.897Z,17.70
2018-09-12T11:14:06.572Z,17.70
2018-09-12T11:16:35.314Z,17.80
2018-09-12T11:19:04.261Z,17.90
2018-09-12T11:21:32.927Z,18.10
2018-09-12T11:24:02.249Z,18.00
2018-09-12T11:26:31.289Z,18.10
2018-09-12T11:28:59.975Z,18.00
2018-09-12T11:31:28.989Z,17.90
2018-09-12T11:33:57.521Z,17.80
2018-09-12T11:36:26.416Z,17.60
2018-09-12T11:38:55.300Z,17.70
2018-09-12T11:41:24.319Z,17.80
2018-09-12T11:43:53.235Z,17.80
2018-09-12T11:46:21.859Z,17.90
2018-09-12T11:48:50.518Z,17.90
2018-09-12T11:51:19.130Z,17.80
2018-09-12T11:53:47.809Z,17.50
2018-09-12T11:56:16.471Z,17.50
2018-09-12T11:58:45.042Z,17.30
2018-09-12T12:01:13.654Z,17.10
2018-09-12T12:03:42.272Z,17.00
2018-09-12T12:06:10.924Z,16.90
2018-09-12T12:08:39.435Z,16.70
2018-09-12T12:11:08.074Z,16.50
2018-09-12T12:13:36.646Z,16.50
2018-09-12T12:16:05.316Z,16.60
2018-09-12T12:18:34.002Z,16.80
2018-09-12T12:21:02.676Z,16.90
2018-09-12T12:23:31.429Z,17.00
2018-09-12T12:26:00.345Z,16.90
2018-09-12T12:28:29.011Z,17.00
2018-09-12T12:30:57.602Z,17.00
2018-09-12T12:33:26.186Z,16.80
2018-09-12T12:35:54.860Z,16.70
2018-09-12T12:38:23.570Z,16.60
2018-09-12T12:40:52.867Z,16.60
2018-09-12T12:43:21.534Z,16.50
2018-09-12T12:45:50.203Z,16.50
2018-09-12T12:48:18.865Z,16.50
2018-09-12T12:50:47.537Z,16.30
2018-09-12T12:53:16.141Z,16.30
2018-09-12T12:55:44.729Z,16.40
2018-09-12T12:58:13.351Z,16.40
2018-09-12T13:00:42.053Z,16.40
2018-09-12T13:03:10.652Z,16.20
2018-09-12T13:05:39.200Z,16.10
2018-09-12T13:08:07.925Z,16.00
2018-09-12T13:10:36.718Z,16.00
2018-09-12T13:13:06.205Z,16.10
2018-09-12T13:15:34.812Z,16.00
2018-09-12T13:18:03.625Z,16.10
2018-09-12T13:20:32.291Z,16.30
2018-09-12T13:23:01.913Z,16.50
2018-09-12T13:25:30.559Z,16.50
2018-09-12T13:27:59.298Z,16.50
2018-09-12T13:30:28.467Z,16.40
2018-09-12T13:32:57.274Z,16.50
2018-09-12T13:35:26.231Z,16.60
2018-09-12T13:37:54.894Z,16.50
2018-09-12T13:40:23.845Z,16.50
2018-09-12T13:42:52.821Z,16.40
2018-09-12T13:45:21.671Z,16.20
2018-09-12T13:47:51.223Z,16.20
2018-09-12T13:50:19.887Z,16.10
2018-09-12T13:52:48.927Z,16.10
2018-09-12T13:55:17.805Z,16.00
2018-09-12T13:57:46.481Z,16.00
2018-09-12T14:00:15.153Z,15.90
2018-09-12T14:02:43.885Z,15.90
2018-09-12T14:05:13.219Z,15.80
2018-09-12T14:07:41.974Z,15.70
2018-09-12T14:10:10.564Z,15.60
2018-09-12T14:12:39.370Z,15.50
2018-09-12T14:15:08.038Z,15.50
2018-09-12T14:17:37.916Z,15.40
2018-09-12T14:20:06.640Z,15.50
2018-09-12T14:22:41.991Z,15.50
2018-09-12T14:25:10.670Z,15.50
2018-09-12T14:27:39.315Z,15.60
2018-09-12T14:30:07.876Z,15.70
2018-09-12T14:32:36.503Z,15.90
2018-09-12T14:35:05.407Z,15.90
2018-09-12T14:37:34.073Z,15.90
2018-09-12T14:40:03.253Z,15.90
2018-09-12T14:42:31.995Z,15.90
2018-09-12T14:45:00.800Z,15.80
2018-09-12T14:47:29.352Z,15.80
2018-09-12T14:49:58.090Z,15.90
2018-09-12T14:52:26.670Z,15.90
2018-09-12T14:54:55.464Z,15.90
2018-09-12T14:57:24.121Z,15.90
2018-09-12T14:59:52.799Z,16.00
2018-09-12T15:02:21.513Z,16.10
2018-09-12T15:04:50.354Z,16.10
2018-09-12T15:07:19.212Z,16.10
2018-09-12T15:09:48.786Z,16.10
2018-09-12T15:12:17.399Z,16.10
2018-09-12T15:14:46.139Z,16.20
2018-09-12T15:17:14.784Z,16.30
2018-09-12T15:19:43.854Z,16.40
2018-09-12T15:22:12.539Z,16.40
2018-09-12T15:24:41.285Z,16.50
2018-09-12T15:27:09.968Z,16.60
2018-09-12T15:29:38.702Z,16.70
2018-09-12T15:32:08.158Z,16.80
2018-09-12T15:34:36.855Z,16.80
2018-09-12T15:37:05.758Z,16.80
2018-09-12T15:39:34.449Z,16.70
2018-09-12T15:42:03.254Z,16.70
2018-09-12T15:44:31.898Z,16.70
2018-09-12T15:47:00.591Z,16.70
2018-09-12T15:49:29.335Z,16.70
2018-09-12T15:51:58.018Z,16.80
2018-09-12T15:54:26.581Z,16.70
2018-09-12T15:56:55.261Z,16.70
2018-09-12T15:59:23.890Z,16.70
2018-09-12T16:01:52.560Z,16.70
2018-09-12T16:04:21.577Z,16.60
2018-09-12T16:06:50.362Z,16.50
2018-09-12T16:09:19.077Z,16.50
2018-09-12T16:11:47.714Z,16.50
2018-09-12T16:14:16.574Z,16.50
2018-09-12T16:16:45.988Z,16.60
2018-09-12T16:19:14.788Z,16.50
2018-09-12T16:21:43.615Z,16.50
2018-09-12T16:24:12.243Z,16.50
2018-09-12T16:26:40.878Z,16.50
2018-09-12T16:29:09.489Z,16.60
2018-09-12T16:31:38.149Z,16.60
2018-09-12T16:34:07.421Z,16.70
2018-09-12T16:36:36.124Z,16.60
2018-09-12T16:39:08.185Z,16.60
2018-09-12T16:41:36.927Z,16.60
2018-09-12T16:44:05.648Z,16.60
2018-09-12T16:46:34.360Z,16.60
2018-09-12T16:49:03.858Z,16.50
2018-09-12T16:51:33.071Z,16.50
2018-09-12T16:54:01.801Z,16.50
2018-09-12T16:56:30.946Z,16.50
2018-09-12T16:58:59.716Z,16.50
2018-09-12T17:01:28.382Z,16.50
2018-09-12T17:03:56.946Z,16.40
2018-09-12T17:06:26.728Z,16.40
2018-09-12T17:08:55.372Z,16.40
2018-09-12T17:11:24.155Z,16.40
2018-09-12T17:13:52.835Z,16.40
2018-09-12T17:16:21.528Z,16.40
2018-09-12T17:18:50.114Z,16.40
2018-09-12T17:21:18.747Z,16.40
2018-09-12T17:23:47.482Z,16.30
2018-09-12T17:26:16.080Z,16.30
2018-09-12T17:28:44.754Z,16.30
2018-09-12T17:31:13.385Z,16.40
2018-09-12T17:33:42.032Z,16.40
2018-09-12T17:36:10.749Z,16.40
2018-09-12T17:38:39.391Z,16.50
2018-09-12T17:41:08.453Z,16.50
2018-09-12T17:43:37.296Z,16.50
2018-09-12T17:46:06.179Z,16.50
2018-09-12T17:48:34.797Z,16.50
2018-09-12T17:51:03.527Z,16.60
2018-09-12T17:53:32.116Z,16.50
2018-09-12T17:56:00.767Z,16.50
2018-09-12T17:58:29.429Z,16.50
2018-09-12T18:00:58.140Z,16.40
2018-09-12T18:03:26.821Z,16.30
2018-09-12T18:05:55.521Z,16.40
2018-09-12T18:08:24.143Z,16.40
2018-09-12T18:10:52.966Z,16.30
2018-09-12T18:13:21.662Z,16.30
2018-09-12T18:15:51.243Z,16.40
2018-09-12T18:18:20.017Z,16.30
2018-09-12T18:20:48.595Z,16.30
2018-09-12T18:23:17.385Z,16.30
2018-09-12T18:25:46.026Z,16.30
2018-09-12T18:28:14.722Z,16.30
2018-09-12T18:30:43.563Z,16.40
2018-09-12T18:33:12.819Z,16.30
2018-09-12T18:35:41.518Z,16.40
2018-09-12T18:38:10.305Z,16.40
2018-09-12T18:40:38.965Z,16.40
2018-09-12T18:43:07.844Z,16.40
2018-09-12T18:45:36.473Z,16.20
2018-09-12T18:48:05.549Z,16.20
2018-09-12T18:50:34.233Z,16.20
2018-09-12T18:53:02.892Z,16.20
2018-09-12T18:55:31.491Z,16.30
2018-09-12T18:58:00.748Z,16.30
2018-09-12T19:00:29.522Z,16.20
2018-09-12T19:02:58.730Z,16.20
2018-09-12T19:05:27.363Z,16.20
2018-09-12T19:07:56.119Z,16.20
2018-09-12T19:10:24.862Z,16.20
2018-09-12T19:12:53.615Z,16.10
2018-09-12T19:15:22.251Z,16.10
2018-09-12T19:17:50.883Z,16.10
2018-09-12T19:20:19.522Z,16.00
2018-09-12T19:22:48.175Z,16.00
2018-09-12T19:25:16.963Z,16.00
2018-09-12T19:27:45.634Z,16.00
2018-09-12T19:30:14.427Z,16.00
2018-09-12T19:32:43.049Z,16.00
2018-09-12T19:35:11.665Z,16.00
2018-09-12T19:37:40.302Z,16.00
2018-09-12T19:40:09.024Z,16.00
2018-09-12T19:42:37.650Z,16.00
2018-09-12T19:45:06.803Z,15.90
2018-09-12T19:47:35.390Z,15.80
2018-09-12T19:50:04.131Z,15.80
2018-09-12T19:52:32.759Z,15.80
2018-09-12T19:55:01.291Z,15.80
2018-09-12T19:57:29.975Z,15.80
2018-09-12T19:59:58.656Z,15.70
2018-09-12T20:02:28.913Z,15.70
2018-09-12T20:04:58.387Z,15.70
2018-09-12T20:07:27.306Z,15.70
2018-09-12T20:09:56.045Z,15.70
2018-09-12T20:12:24.727Z,15.60
2018-09-12T20:14:53.826Z,15.60
2018-09-12T20:17:22.530Z,15.60
2018-09-12T20:19:51.385Z,15.60
2018-09-12T20:22:20.552Z,15.60
2018-09-12T20:24:49.491Z,15.70
2018-09-12T20:27:18.146Z,15.60
2018-09-12T20:29:47.188Z,15.60
2018-09-12T20:32:16.080Z,15.50
2018-09-12T20:34:45.027Z,15.60
2018-09-12T20:37:14.366Z,15.60
2018-09-12T20:39:43.048Z,15.60
2018-09-12T20:42:11.778Z,15.50
2018-09-12T20:44:40.668Z,15.40
2018-09-12T20:47:09.616Z,15.30
2018-09-12T20:49:38.211Z,15.40
2018-09-12T20:52:07.296Z,15.40
2018-09-12T20:54:36.185Z,15.50
2018-09-12T20:57:04.935Z,15.40
2018-09-12T20:59:33.828Z,15.40
2018-09-12T21:02:02.540Z,15.50
2018-09-12T21:04:31.243Z,15.50
2018-09-12T21:06:59.904Z,15.50
2018-09-12T21:09:28.663Z,15.40
2018-09-12T21:11:58.102Z,15.40
2018-09-12T21:14:26.703Z,15.30
2018-09-12T21:16:55.376Z,15.30
2018-09-12T21:19:24.287Z,15.20
2018-09-12T21:21:52.954Z,15.20
2018-09-12T21:24:21.853Z,15.20
2018-09-12T21:26:50.420Z,15.30
2018-09-12T21:29:19.025Z,15.30
2018-09-12T21:31:47.666Z,15.30
2018-09-12T21:34:16.365Z,15.20
2018-09-12T21:36:45.251Z,15.30
2018-09-12T21:39:14.102Z,15.40
2018-09-12T21:41:42.679Z,15.30
2018-09-12T21:44:11.453Z,15.40
2018-09-12T21:46:40.118Z,15.30
2018-09-12T21:49:08.669Z,15.30
2018-09-12T21:51:37.217Z,15.40
2018-09-12T21:54:05.870Z,15.30
2018-09-12T21:56:34.700Z,15.30
2018-09-12T21:59:03.325Z,15.30
2018-09-12T22:01:32.209Z,15.30
2018-09-12T22:04:00.799Z,15.40
2018-09-12T22:06:30.399Z,15.40
2018-09-12T22:08:59.073Z,15.30
2018-09-12T22:11:27.871Z,15.30
2018-09-12T22:13:56.561Z,15.30
2018-09-12T22:16:25.251Z,15.30
2018-09-12T22:18:53.901Z,15.30
2018-09-12T22:21:22.624Z,15.30
2018-09-12T22:23:51.265Z,15.30
2018-09-12T22:26:19.789Z,15.20
2018-09-12T22:28:48.502Z,15.20
2018-09-12T22:31:17.170Z,15.20
2018-09-12T22:33:45.845Z,15.30
2018-09-12T22:36:15.192Z,15.30
2018-09-12T22:38:43.977Z,15.30
2018-09-12T22:41:12.940Z,15.20
2018-09-12T22:43:41.712Z,15.30
2018-09-12T22:46:10.353Z,15.30
2018-09-12T22:48:39.109Z,15.30
2018-09-12T22:51:08.032Z,15.30
2018-09-12T22:53:36.880Z,15.20
2018-09-12T22:56:05.639Z,15.20
2018-09-12T22:58:34.354Z,15.20
2018-09-12T23:01:07.504Z,15.20
2018-09-12T23:03:36.199Z,15.20
2018-09-12T23:06:04.918Z,15.20
2018-09-12T23:08:33.801Z,15.30
2018-09-12T23:11:02.352Z,15.30
2018-09-12T23:13:31.007Z,15.20
2018-09-12T23:15:59.613Z,15.20
2018-09-12T23:18:28.230Z,15.20
2018-09-12T23:20:56.814Z,15.20
2018-09-12T23:23:25.508Z,15.20
2018-09-12T23:25:54.151Z,15.10
2018-09-12T23:28:22.725Z,15.10
2018-09-12T23:30:51.518Z,15.10
2018-09-12T23:33:20.306Z,15.10
2018-09-12T23:35:48.993Z,15.20
2018-09-12T23:38:17.646Z,15.20
2018-09-12T23:40:46.370Z,15.20
2018-09-12T23:43:15.213Z,15.20
2018-09-12T23:45:43.828Z,15.20
2018-09-12T23:48:12.598Z,15.20
2018-09-12T23:50:41.550Z,15.20
2018-09-12T23:53:10.172Z,15.30
2018-09-12T23:55:38.812Z,15.20
2018-09-12T23:58:07.398Z,15.20
